Time;durP1;ratioP1;P1;durP2;ratioP2;P2;SDS_P1;SDS_P2;PMS_P1;PMS_P2;Temp;Humidity;BMP_temperature;BMP_pressure;BME280_temperature;BME280_humidity;BME280_pressure;Samples;Min_cycle;Max_cycle;Signal;HPM_P1;HPM_P2
2023/06/15 00:00:45;;;;;;;5.47;3.70;;;14.70;99.90;;;;;;5094580;27;20426;-87
2023/06/15 00:03:11;;;;;;;4.97;3.58;;;14.60;99.90;;;;;;5092907;27;20391;-88
2023/06/15 00:05:37;;;;;;;5.47;3.75;;;14.80;99.90;;;;;;5094507;27;20747;-88
2023/06/15 00:08:03;;;;;;;7.37;4.03;;;14.50;99.90;;;;;;5093593;27;20452;-87
2023/06/15 00:10:28;;;;;;;7.03;4.13;;;14.50;99.90;;;;;;5094098;27;20440;-87
2023/06/15 00:12:54;;;;;;;6.05;4.05;;;14.50;99.90;;;;;;5093901;27;20410;-88
2023/06/15 00:15:19;;;;;;;4.70;4.07;;;14.50;99.90;;;;;;5093683;27;20960;-87
2023/06/15 00:17:46;;;;;;;7.72;3.95;;;14.50;99.90;;;;;;5094579;27;20402;-87
2023/06/15 00:20:12;;;;;;;5.38;3.95;;;14.30;99.90;;;;;;5092358;27;20929;-88
2023/06/15 00:22:41;;;;;;;6.07;4.20;;;14.30;99.90;;;;;;5094417;27;20392;-88
2023/06/15 00:25:08;;;;;;;6.85;4.05;;;14.20;99.90;;;;;;5093605;27;20563;-87
2023/06/15 00:27:37;;;;;;;5.27;3.90;;;14.30;99.90;;;;;;5093747;27;20406;-88
2023/06/15 00:30:09;;;;;;;8.97;4.30;;;14.30;99.90;;;;;;5093677;27;20918;-88
2023/06/15 00:32:34;;;;;;;5.68;3.63;;;14.20;99.90;;;;;;5092910;27;20808;-88
2023/06/15 00:35:00;;;;;;;5.97;4.05;;;14.20;99.90;;;;;;5093591;27;20467;-88
2023/06/15 00:37:25;;;;;;;7.83;4.37;;;14.20;99.90;;;;;;5109485;27;20426;-88
2023/06/15 00:39:51;;;;;;;7.32;3.70;;;14.20;99.90;;;;;;5093964;27;20505;-87
2023/06/15 00:42:17;;;;;;;6.07;3.97;;;14.20;99.90;;;;;;5092092;27;20399;-88
2023/06/15 00:44:42;;;;;;;6.10;4.05;;;14.00;99.90;;;;;;5093651;27;20959;-88
2023/06/15 00:47:08;;;;;;;6.73;4.10;;;14.10;99.90;;;;;;5093346;27;20459;-87
2023/06/15 00:49:35;;;;;;;7.43;4.18;;;14.10;99.90;;;;;;5093242;27;20781;-88
2023/06/15 00:52:01;;;;;;;6.53;4.43;;;14.00;99.90;;;;;;5093353;27;20402;-88
2023/06/15 00:54:28;;;;;;;7.03;4.65;;;14.00;99.90;;;;;;5091829;27;20390;-88
2023/06/15 00:56:55;;;;;;;6.30;4.38;;;14.00;99.90;;;;;;5093292;27;20936;-89
2023/06/15 00:59:21;;;;;;;6.22;4.30;;;14.00;99.90;;;;;;5092224;27;20577;-88
2023/06/15 01:01:54;;;;;;;8.37;4.90;;;14.10;99.90;;;;;;5093305;27;20421;-87
2023/06/15 01:04:26;;;;;;;6.28;4.28;;;13.90;99.90;;;;;;5092708;27;20409;-88
2023/06/15 01:07:04;;;;;;;8.60;4.90;;;13.90;99.90;;;;;;5092621;27;21263;-87
2023/06/15 01:09:35;;;;;;;6.47;4.28;;;13.80;99.90;;;;;;5109986;27;20409;-88
2023/06/15 01:12:05;;;;;;;5.43;4.57;;;13.80;99.90;;;;;;5092306;27;20391;-89
2023/06/15 01:14:32;;;;;;;5.90;4.45;;;13.80;99.90;;;;;;5093297;27;20387;-89
2023/06/15 01:17:05;;;;;;;7.15;4.70;;;13.80;99.90;;;;;;5092700;27;21044;-87
2023/06/15 01:19:53;;;;;;;6.35;4.60;;;13.80;99.90;;;;;;5109643;27;20410;-88
2023/06/15 01:22:29;;;;;;;5.80;4.80;;;13.80;99.90;;;;;;5093475;27;20442;-88
2023/06/15 01:25:40;;;;;;;6.47;4.80;;;13.70;99.90;;;;;;5091711;27;20414;-89
2023/06/15 01:28:07;;;;;;;5.93;4.80;;;13.70;99.90;;;;;;5070748;27;20407;-89
2023/06/15 01:30:47;;;;;;;6.63;4.72;;;13.50;99.90;;;;;;5092548;27;20427;-88
2023/06/15 01:33:15;;;;;;;6.97;4.78;;;13.40;99.90;;;;;;5091590;27;20472;-89
2023/06/15 01:35:40;;;;;;;6.70;4.78;;;13.30;99.90;;;;;;5092498;27;20402;-88
2023/06/15 01:38:06;;;;;;;6.63;5.30;;;13.40;99.90;;;;;;5091092;27;20487;-88
2023/06/15 01:40:35;;;;;;;6.37;4.90;;;13.40;99.90;;;;;;5092707;27;20422;-88
2023/06/15 01:43:02;;;;;;;8.25;5.35;;;13.30;99.90;;;;;;5091659;27;20394;-88
2023/06/15 01:45:30;;;;;;;7.65;5.13;;;13.50;99.90;;;;;;5091526;27;20901;-88
2023/06/15 01:47:56;;;;;;;6.75;5.25;;;13.30;99.90;;;;;;5092380;27;20506;-88
2023/06/15 01:50:24;;;;;;;7.90;5.30;;;13.30;99.90;;;;;;5091130;27;20785;-88
2023/06/15 01:52:50;;;;;;;6.50;4.75;;;13.30;99.90;;;;;;5092266;27;20487;-88
2023/06/15 01:55:15;;;;;;;8.32;5.10;;;13.30;99.90;;;;;;5090812;27;20778;-88
2023/06/15 01:57:41;;;;;;;6.47;4.90;;;13.40;99.90;;;;;;5109185;27;20390;-88
2023/06/15 02:00:10;;;;;;;6.70;4.70;;;13.40;99.90;;;;;;5108514;27;20409;-88
2023/06/15 02:02:37;;;;;;;6.65;5.25;;;13.30;99.90;;;;;;5091638;27;20769;-88
2023/06/15 02:05:06;;;;;;;7.00;4.80;;;13.50;99.90;;;;;;5091998;27;20414;-87
2023/06/15 02:07:32;;;;;;;7.50;5.73;;;13.30;99.90;;;;;;5090632;27;20399;-88
2023/06/15 02:09:58;;;;;;;5.60;4.68;;;13.30;99.90;;;;;;5092191;27;20512;-88
2023/06/15 02:12:23;;;;;;;7.47;5.50;;;13.20;99.90;;;;;;5090708;27;20527;-88
2023/06/15 02:14:49;;;;;;;6.85;5.60;;;13.20;99.90;;;;;;5109197;27;20391;-88
2023/06/15 02:17:18;;;;;;;6.93;4.88;;;13.10;99.90;;;;;;5091303;27;20741;-88
2023/06/15 02:19:47;;;;;;;7.38;5.20;;;13.10;99.90;;;;;;5091350;27;20398;-89
2023/06/15 02:22:15;;;;;;;6.07;4.75;;;13.00;99.90;;;;;;5108438;27;20422;-88
2023/06/15 02:24:41;;;;;;;6.85;6.13;;;13.00;99.90;;;;;;5107478;28;20399;-89
2023/06/15 02:27:07;;;;;;;7.82;5.78;;;12.90;99.90;;;;;;5092015;28;20759;-87
2023/06/15 02:29:33;;;;;;;7.70;5.90;;;13.00;99.90;;;;;;5107469;28;20930;-88
2023/06/15 02:31:58;;;;;;;5.90;5.22;;;12.90;99.90;;;;;;5092077;28;20983;-88
2023/06/15 02:34:26;;;;;;;6.13;5.00;;;12.80;99.90;;;;;;5091002;28;20906;-87
2023/06/15 02:36:56;;;;;;;6.50;4.70;;;12.60;99.90;;;;;;5091681;28;20479;-88
2023/06/15 02:39:21;;;;;;;6.20;5.20;;;12.70;99.90;;;;;;5091145;28;20410;-88
2023/06/15 02:41:47;;;;;;;8.85;5.65;;;12.40;99.90;;;;;;5090795;28;20423;-88
2023/06/15 02:44:16;;;;;;;6.70;5.20;;;12.40;99.90;;;;;;5091589;28;20811;-88
2023/06/15 02:46:42;;;;;;;6.85;5.90;;;12.30;99.90;;;;;;5090549;28;20434;-88
2023/06/15 02:49:08;;;;;;;6.60;5.57;;;12.40;99.90;;;;;;5091698;28;20393;-88
2023/06/15 02:51:35;;;;;;;9.03;5.83;;;12.30;99.90;;;;;;5090984;28;20399;-88
2023/06/15 02:54:01;;;;;;;6.00;5.47;;;12.30;99.90;;;;;;5091634;28;20399;-88
2023/06/15 02:56:29;;;;;;;6.80;6.03;;;12.30;99.90;;;;;;5091134;28;20545;-87
2023/06/15 02:58:55;;;;;;;6.50;5.90;;;12.30;99.90;;;;;;5090906;28;20440;-89
2023/06/15 03:01:22;;;;;;;7.38;6.20;;;12.20;99.90;;;;;;5091241;28;20418;-87
2023/06/15 03:03:48;;;;;;;6.53;4.73;;;12.10;99.90;;;;;;5090122;28;20906;-88
2023/06/15 03:06:18;;;;;;;7.38;6.22;;;12.10;99.90;;;;;;5092032;28;20510;-88
2023/06/15 03:08:44;;;;;;;7.70;6.15;;;12.00;99.90;;;;;;5090393;28;20394;-88
2023/06/15 03:11:10;;;;;;;7.50;6.70;;;11.90;99.90;;;;;;5091533;28;20424;-87
2023/06/15 03:13:36;;;;;;;9.10;6.40;;;11.90;99.90;;;;;;5090557;28;20398;-88
2023/06/15 03:16:02;;;;;;;8.17;6.93;;;11.90;99.90;;;;;;5107672;28;20409;-86
2023/06/15 03:18:29;;;;;;;7.97;7.18;;;11.90;99.90;;;;;;5108653;27;20403;-88
2023/06/15 03:20:57;;;;;;;6.50;5.63;;;11.90;99.90;;;;;;5094345;27;20426;-88
2023/06/15 03:23:26;;;;;;;7.60;6.22;;;12.00;99.90;;;;;;5112069;27;20395;-88
2023/06/15 03:25:52;;;;;;;8.18;6.55;;;12.00;99.90;;;;;;5093872;27;20486;-87
2023/06/15 03:28:24;;;;;;;8.05;6.72;;;12.00;99.90;;;;;;5095484;27;20755;-88
2023/06/15 03:30:53;;;;;;;7.78;7.07;;;12.00;99.90;;;;;;5094052;27;20892;-87
2023/06/15 03:33:22;;;;;;;6.93;5.95;;;12.10;99.90;;;;;;5094187;27;20399;-88
2023/06/15 03:35:49;;;;;;;6.80;6.10;;;12.10;99.90;;;;;;5095028;27;20421;-88
2023/06/15 03:38:17;;;;;;;7.22;6.30;;;12.20;99.90;;;;;;5093865;27;20481;-88
2023/06/15 03:40:43;;;;;;;9.15;7.97;;;12.30;99.90;;;;;;5094812;27;20463;-87
2023/06/15 03:43:13;;;;;;;8.55;7.68;;;12.30;99.90;;;;;;5109953;27;20769;-88
2023/06/15 03:45:39;;;;;;;9.68;8.75;;;12.20;99.90;;;;;;5094878;27;20399;-88
2023/06/15 03:48:06;;;;;;;8.63;7.72;;;12.20;99.90;;;;;;5094114;27;20398;-88
2023/06/15 03:50:32;;;;;;;7.43;6.63;;;12.20;99.90;;;;;;5110967;27;20387;-88
2023/06/15 03:52:58;;;;;;;9.40;8.40;;;12.30;99.90;;;;;;5094344;27;20405;-87
2023/06/15 03:55:25;;;;;;;9.18;7.95;;;12.20;99.90;;;;;;5093191;27;20395;-87
2023/06/15 03:57:50;;;;;;;9.13;7.20;;;12.20;99.90;;;;;;5094440;27;20403;-88
2023/06/15 04:00:16;;;;;;;9.57;8.67;;;12.20;99.90;;;;;;5093270;27;20528;-88
2023/06/15 04:02:42;;;;;;;8.13;7.05;;;12.30;99.90;;;;;;5111556;27;20453;-89
2023/06/15 04:05:09;;;;;;;8.05;7.15;;;12.30;99.90;;;;;;5093444;27;20430;-86
2023/06/15 04:07:35;;;;;;;8.88;7.97;;;12.40;99.90;;;;;;5093871;27;20434;-88
2023/06/15 04:10:01;;;;;;;10.02;8.75;;;12.50;99.90;;;;;;5093820;27;20441;-87
2023/06/15 04:12:26;;;;;;;10.00;8.07;;;12.60;99.90;;;;;;5093014;27;20460;-88
2023/06/15 04:14:52;;;;;;;11.60;8.98;;;12.60;99.90;;;;;;5094590;27;20410;-88
2023/06/15 04:17:18;;;;;;;9.03;8.13;;;12.70;99.90;;;;;;5093285;27;21093;-88
2023/06/15 04:19:45;;;;;;;9.70;8.77;;;12.80;99.90;;;;;;5094344;27;20687;-88
2023/06/15 04:22:11;;;;;;;11.60;10.50;;;12.90;99.90;;;;;;5109514;27;20480;-87
2023/06/15 04:24:40;;;;;;;11.65;10.55;;;13.00;99.90;;;;;;5129188;27;20395;-87
2023/06/15 04:27:06;;;;;;;11.10;10.00;;;13.10;99.90;;;;;;5093287;27;20452;-87
2023/06/15 04:29:31;;;;;;;12.00;10.77;;;13.20;99.90;;;;;;5092462;27;20399;-88
2023/06/15 04:31:57;;;;;;;11.10;9.90;;;13.30;99.90;;;;;;5093992;27;20414;-88
2023/06/15 04:34:26;;;;;;;10.32;9.23;;;13.50;99.90;;;;;;5092244;27;20402;-86
2023/06/15 04:36:53;;;;;;;11.52;10.00;;;13.60;99.90;;;;;;5093951;27;20871;-88
2023/06/15 04:39:24;;;;;;;9.23;8.30;;;13.80;99.90;;;;;;5091946;27;20422;-87
2023/06/15 04:41:49;;;;;;;10.98;9.55;;;13.90;99.90;;;;;;5110306;27;20847;-88
2023/06/15 04:44:15;;;;;;;10.07;9.10;;;14.20;99.90;;;;;;5092565;27;20499;-87
2023/06/15 04:46:41;;;;;;;9.60;8.57;;;14.20;99.90;;;;;;5093116;27;20790;-88
2023/06/15 04:49:08;;;;;;;9.87;8.77;;;14.40;99.90;;;;;;5110121;27;20505;-88
2023/06/15 04:51:34;;;;;;;8.77;7.88;;;14.50;99.90;;;;;;5092403;27;20398;-88
2023/06/15 04:53:59;;;;;;;9.80;8.80;;;14.70;99.90;;;;;;5093539;27;20443;-88
2023/06/15 04:56:25;;;;;;;10.20;9.10;;;14.90;99.90;;;;;;5108201;27;20468;-88
2023/06/15 04:58:51;;;;;;;10.35;8.57;;;15.10;99.90;;;;;;5092925;27;20410;-88
2023/06/15 05:01:17;;;;;;;9.60;8.70;;;15.20;99.90;;;;;;5092392;27;20418;-87
2023/06/15 05:03:43;;;;;;;9.60;8.43;;;15.50;99.90;;;;;;5109449;27;20399;-88
2023/06/15 05:06:08;;;;;;;8.30;7.45;;;15.60;99.90;;;;;;5109224;27;20409;-87
2023/06/15 05:08:35;;;;;;;8.88;7.53;;;15.80;99.90;;;;;;5091894;27;20410;-87
2023/06/15 05:11:01;;;;;;;7.95;7.13;;;16.10;99.90;;;;;;5092754;27;20387;-87
2023/06/15 05:13:28;;;;;;;8.50;6.78;;;16.20;99.90;;;;;;5108473;27;20403;-88
2023/06/15 05:15:54;;;;;;;9.85;6.88;;;16.70;99.90;;;;;;5110364;27;20391;-88
2023/06/15 05:18:19;;;;;;;9.03;6.73;;;16.80;99.90;;;;;;5091613;27;20401;-88
2023/06/15 05:20:45;;;;;;;9.48;6.90;;;16.90;99.90;;;;;;5092237;27;20517;-89
2023/06/15 05:23:11;;;;;;;8.90;6.03;;;17.10;99.90;;;;;;5092545;27;20824;-88
2023/06/15 05:25:37;;;;;;;8.10;6.47;;;17.30;99.90;;;;;;5091834;27;20431;-88
2023/06/15 05:28:03;;;;;;;10.20;6.33;;;17.40;99.90;;;;;;5092568;27;20386;-87
2023/06/15 05:30:29;;;;;;;7.75;5.75;;;17.60;99.90;;;;;;5091401;27;20399;-87
2023/06/15 05:32:55;;;;;;;9.60;6.15;;;17.80;99.90;;;;;;5109784;27;20417;-87
2023/06/15 05:35:20;;;;;;;7.97;5.87;;;17.90;99.90;;;;;;5090732;27;20399;-88
2023/06/15 05:37:46;;;;;;;8.52;5.53;;;18.00;99.90;;;;;;5092378;27;20430;-88
2023/06/15 05:40:12;;;;;;;7.70;5.93;;;18.40;99.90;;;;;;5091704;27;21000;-87
2023/06/15 05:42:38;;;;;;;7.65;5.22;;;18.30;99.90;;;;;;5090909;27;20399;-89
2023/06/15 05:45:05;;;;;;;6.32;5.45;;;18.40;99.90;;;;;;5092322;27;20402;-89
2023/06/15 05:47:34;;;;;;;6.32;5.10;;;18.50;99.90;;;;;;5091290;27;20845;-88
2023/06/15 05:50:00;;;;;;;6.97;5.00;;;18.60;99.90;;;;;;5092586;27;20436;-89
2023/06/15 05:52:25;;;;;;;6.47;5.00;;;18.70;99.90;;;;;;5091003;27;20434;-89
2023/06/15 05:54:51;;;;;;;8.23;4.82;;;18.90;99.90;;;;;;5092381;27;20443;-89
2023/06/15 05:57:17;;;;;;;7.10;4.73;;;19.00;99.90;;;;;;5108652;27;20422;-88
2023/06/15 05:59:46;;;;;;;6.10;4.30;;;19.20;99.90;;;;;;5091695;27;20807;-89
2023/06/15 06:02:12;;;;;;;6.75;4.60;;;19.20;99.90;;;;;;5108782;27;21005;-88
2023/06/15 06:04:38;;;;;;;6.70;4.55;;;19.40;99.90;;;;;;5091454;27;20941;-89
2023/06/15 06:07:07;;;;;;;5.78;4.45;;;19.50;99.90;;;;;;5092339;27;20395;-88
2023/06/15 06:09:34;;;;;;;6.50;4.90;;;19.60;99.90;;;;;;5090666;27;20410;-89
2023/06/15 06:12:02;;;;;;;7.47;4.60;;;19.70;99.90;;;;;;5109171;28;20646;-89
2023/06/15 06:14:28;;;;;;;6.90;4.32;;;19.90;99.90;;;;;;5090853;27;20402;-89
2023/06/15 06:16:57;;;;;;;6.57;3.70;;;19.90;99.90;;;;;;5092006;27;20524;-88
2023/06/15 06:19:24;;;;;;;6.65;3.88;;;20.10;99.90;;;;;;5108597;27;20407;-87
2023/06/15 06:21:49;;;;;;;5.50;3.70;;;20.30;99.90;;;;;;5090841;27;20426;-88
2023/06/15 06:24:16;;;;;;;6.53;3.60;;;20.20;99.90;;;;;;5092046;27;20732;-88
2023/06/15 06:26:41;;;;;;;4.88;3.50;;;20.30;99.90;;;;;;5090840;27;20405;-88
2023/06/15 06:29:07;;;;;;;4.87;2.80;;;20.50;99.90;;;;;;5092108;27;20837;-88
2023/06/15 06:31:33;;;;;;;5.75;3.15;;;20.80;99.90;;;;;;5090467;28;20395;-88
2023/06/15 06:33:58;;;;;;;8.63;3.20;;;20.80;99.90;;;;;;5108990;28;20402;-88
2023/06/15 06:36:26;;;;;;;4.78;3.05;;;20.90;99.90;;;;;;5090935;28;20464;-87
2023/06/15 06:38:51;;;;;;;6.68;2.97;;;20.80;99.90;;;;;;5107892;28;21253;-88
2023/06/15 06:41:17;;;;;;;5.13;2.80;;;21.00;99.90;;;;;;5091416;28;20505;-89
2023/06/15 06:43:42;;;;;;;5.60;2.70;;;21.20;98.80;;;;;;5107480;28;20448;-88
2023/06/15 06:46:09;;;;;;;4.83;2.77;;;21.30;95.70;;;;;;5091958;28;20759;-89
2023/06/15 06:48:35;;;;;;;5.95;2.60;;;21.30;98.10;;;;;;5090254;28;20478;-88
2023/06/15 06:51:00;;;;;;;3.30;2.70;;;21.40;94.90;;;;;;5091557;28;20477;-88
2023/06/15 06:53:26;;;;;;;5.57;2.80;;;21.40;95.20;;;;;;5092222;27;20793;-88
2023/06/15 06:55:52;;;;;;;5.20;2.53;;;21.60;95.60;;;;;;5095346;27;20390;-88
2023/06/15 06:58:17;;;;;;;4.77;2.40;;;21.70;93.60;;;;;;5095453;27;20391;-88
2023/06/15 07:00:43;;;;;;;4.57;2.20;;;21.80;93.30;;;;;;5111533;27;20422;-89
2023/06/15 07:03:08;;;;;;;4.70;2.47;;;21.90;95.40;;;;;;5112422;27;20399;-88
2023/06/15 07:05:34;;;;;;;5.37;2.80;;;22.20;93.40;;;;;;5094920;27;20493;-88
2023/06/15 07:08:00;;;;;;;3.67;2.55;;;22.20;91.90;;;;;;5112418;27;20398;-89
2023/06/15 07:10:25;;;;;;;6.93;2.30;;;22.20;86.30;;;;;;5094513;27;20917;-88
2023/06/15 07:12:55;;;;;;;5.67;2.10;;;22.30;87.90;;;;;;5095478;27;20743;-89
2023/06/15 07:15:21;;;;;;;4.38;2.20;;;22.50;89.90;;;;;;5111867;27;20477;-88
2023/06/15 07:17:47;;;;;;;4.95;2.40;;;22.60;85.00;;;;;;5094357;27;20409;-88
2023/06/15 07:20:12;;;;;;;6.03;3.70;;;22.90;77.60;;;;;;5094852;27;20399;-89
2023/06/15 07:22:38;;;;;;;10.05;4.93;;;22.80;73.10;;;;;;5094187;27;20395;-88
2023/06/15 07:25:04;;;;;;;8.93;5.50;;;23.10;68.20;;;;;;5112116;27;20403;-88
2023/06/15 07:27:30;;;;;;;8.80;4.85;;;23.00;72.50;;;;;;5093890;27;20746;-88
2023/06/15 07:29:55;;;;;;;9.33;4.43;;;23.00;75.00;;;;;;5094974;27;20403;-89
2023/06/15 07:32:21;;;;;;;8.02;3.30;;;23.20;71.80;;;;;;5094428;27;20599;-88
2023/06/15 07:34:47;;;;;;;5.72;3.00;;;23.20;64.50;;;;;;5111424;27;20476;-90
2023/06/15 07:37:12;;;;;;;5.03;3.23;;;23.40;62.30;;;;;;5094354;27;20742;-88
2023/06/15 07:39:38;;;;;;;6.30;2.90;;;23.60;59.90;;;;;;5093993;27;20432;-88
2023/06/15 07:42:04;;;;;;;5.20;3.00;;;23.70;62.80;;;;;;5111553;27;20995;-89
2023/06/15 07:44:30;;;;;;;6.53;3.20;;;23.50;65.00;;;;;;5093652;27;20395;-87
2023/06/15 07:46:55;;;;;;;7.95;3.88;;;23.60;62.70;;;;;;5111665;27;20398;-89
2023/06/15 07:49:21;;;;;;;7.70;3.17;;;23.70;63.40;;;;;;5093909;27;20407;-88
2023/06/15 07:51:47;;;;;;;6.73;2.80;;;23.80;67.70;;;;;;5094248;27;20386;-89
2023/06/15 07:54:12;;;;;;;5.55;2.10;;;23.80;63.70;;;;;;5094051;27;20481;-88
2023/06/15 07:56:38;;;;;;;3.28;1.83;;;23.80;56.00;;;;;;5110756;27;20618;-89
2023/06/15 07:59:03;;;;;;;3.83;1.90;;;24.10;57.80;;;;;;5111201;27;20403;-88
2023/06/15 08:01:29;;;;;;;4.50;2.00;;;24.30;55.60;;;;;;5109935;27;20414;-86
2023/06/15 08:03:55;;;;;;;5.43;1.90;;;24.30;55.70;;;;;;5111449;27;20427;-88
2023/06/15 08:06:21;;;;;;;5.45;1.70;;;24.60;54.70;;;;;;5092288;27;20394;-88
2023/06/15 08:08:46;;;;;;;4.22;1.58;;;24.60;50.10;;;;;;5129321;27;20394;-88
2023/06/15 08:11:13;;;;;;;5.87;1.40;;;24.60;50.20;;;;;;5110126;27;20399;-88
2023/06/15 08:13:38;;;;;;;2.53;1.07;;;24.60;50.70;;;;;;5110447;27;20401;-88
2023/06/15 08:16:06;;;;;;;2.97;1.20;;;24.70;51.00;;;;;;5093654;27;20399;-88
2023/06/15 08:18:32;;;;;;;3.85;1.40;;;24.80;51.30;;;;;;5109734;27;20398;-88
2023/06/15 08:20:58;;;;;;;4.55;1.40;;;25.00;53.30;;;;;;5094010;27;20419;-88
2023/06/15 08:23:23;;;;;;;3.60;1.30;;;25.00;51.50;;;;;;5109384;27;20404;-87
2023/06/15 08:25:52;;;;;;;4.20;1.40;;;25.10;46.80;;;;;;5093797;27;20482;-88
2023/06/15 08:28:20;;;;;;;3.17;1.48;;;25.10;48.10;;;;;;5092699;27;20464;-88
2023/06/15 08:30:46;;;;;;;4.63;1.47;;;25.20;49.00;;;;;;5110054;27;20406;-87
2023/06/15 08:33:12;;;;;;;2.67;1.40;;;25.30;50.40;;;;;;5128665;27;20917;-87
2023/06/15 08:35:38;;;;;;;3.88;1.38;;;25.30;49.60;;;;;;5092614;27;20406;-88
2023/06/15 08:38:04;;;;;;;4.43;1.60;;;25.40;48.10;;;;;;5128850;27;20398;-88
2023/06/15 08:40:30;;;;;;;4.28;1.40;;;25.40;48.70;;;;;;5108931;27;20739;-88
2023/06/15 08:42:57;;;;;;;2.77;1.47;;;25.40;47.70;;;;;;5093447;27;20398;-88
2023/06/15 08:45:26;;;;;;;3.38;1.50;;;25.60;46.70;;;;;;5109636;27;20421;-88
2023/06/15 08:47:54;;;;;;;2.63;1.15;;;25.60;46.00;;;;;;5110165;27;20486;-87
2023/06/15 08:50:20;;;;;;;5.28;1.40;;;25.80;48.60;;;;;;5092917;27;20403;-87
2023/06/15 08:52:48;;;;;;;3.77;1.40;;;25.80;45.70;;;;;;5092396;27;20910;-88
2023/06/15 08:55:17;;;;;;;4.15;1.15;;;25.90;44.80;;;;;;5109904;27;20434;-88
2023/06/15 08:57:43;;;;;;;4.20;1.40;;;25.90;45.30;;;;;;5108832;27;20413;-88
2023/06/15 09:00:10;;;;;;;4.65;1.30;;;26.00;43.70;;;;;;5110159;27;20879;-88
2023/06/15 09:02:42;;;;;;;3.55;1.45;;;26.10;44.90;;;;;;5108764;27;20398;-87
2023/06/15 09:05:08;;;;;;;3.35;1.17;;;26.10;42.90;;;;;;5127958;27;20403;-87
2023/06/15 09:07:35;;;;;;;3.25;1.27;;;26.20;41.30;;;;;;5109536;27;20432;-87
2023/06/15 09:10:17;;;;;;;5.30;1.40;;;26.20;43.10;;;;;;5109448;27;20775;-89
2023/06/15 09:12:48;;;;;;;3.47;1.70;;;26.30;43.60;;;;;;5109654;27;20410;-88
2023/06/15 09:15:25;;;;;;;3.25;1.50;;;26.10;41.50;;;;;;5091700;27;20403;-87
2023/06/15 09:17:52;;;;;;;4.25;1.30;;;26.00;41.60;;;;;;5109629;27;20966;-87
2023/06/15 09:20:19;;;;;;;3.37;1.63;;;26.00;45.00;;;;;;5091857;27;20455;-88
2023/06/15 09:22:45;;;;;;;3.78;1.27;;;26.20;43.90;;;;;;5091872;27;20440;-87
2023/06/15 09:25:19;;;;;;;3.10;1.48;;;26.20;41.40;;;;;;5092281;27;20939;-87
2023/06/15 09:27:57;;;;;;;4.10;1.10;;;26.30;43.90;;;;;;5126697;27;20516;-88
2023/06/15 09:30:33;;;;;;;4.60;1.00;;;26.40;44.70;;;;;;5109555;27;20774;-88
2023/06/15 09:33:10;;;;;;;3.50;1.00;;;26.70;42.20;;;;;;5108656;27;20402;-89
2023/06/15 09:35:36;;;;;;;4.40;1.55;;;26.80;43.10;;;;;;5127447;27;20389;-88
2023/06/15 09:38:02;;;;;;;2.77;1.10;;;27.00;40.50;;;;;;5092510;27;20406;-87
2023/06/15 09:40:31;;;;;;;2.60;1.10;;;27.20;42.30;;;;;;5108394;27;20407;-88
2023/06/15 09:42:58;;;;;;;2.30;1.13;;;27.40;41.60;;;;;;5092258;27;20398;-88
2023/06/15 09:45:24;;;;;;;3.53;1.30;;;27.60;41.20;;;;;;5108200;27;20863;-87
2023/06/15 09:47:55;;;;;;;2.80;1.50;;;27.70;40.00;;;;;;5092365;27;20417;-89
2023/06/15 09:50:26;;;;;;;3.40;1.15;;;27.80;39.80;;;;;;5091204;27;20410;-88
2023/06/15 09:52:52;;;;;;;4.70;1.30;;;27.80;39.00;;;;;;5108558;27;20386;-88
2023/06/15 09:55:18;;;;;;;4.53;1.57;;;28.00;39.60;;;;;;5091445;27;20932;-88
2023/06/15 09:57:45;;;;;;;2.63;1.25;;;28.20;40.30;;;;;;5091300;27;20403;-89
2023/06/15 10:00:12;;;;;;;3.88;1.20;;;28.40;36.70;;;;;;5091994;27;20437;-88
2023/06/15 10:02:39;;;;;;;3.70;1.13;;;28.60;38.50;;;;;;5107481;27;20398;-89
2023/06/15 10:05:14;;;;;;;3.65;1.60;;;28.80;37.60;;;;;;5108993;27;20390;-88
2023/06/15 10:07:46;;;;;;;3.10;0.88;;;28.80;38.40;;;;;;5091360;27;20410;-87
2023/06/15 10:10:14;;;;;;;3.42;1.27;;;29.00;41.30;;;;;;5091260;27;20420;-89
2023/06/15 10:12:43;;;;;;;4.18;1.30;;;29.10;37.20;;;;;;5108542;27;20891;-88
2023/06/15 10:15:12;;;;;;;3.15;1.20;;;29.20;36.00;;;;;;5107441;27;20917;-88
2023/06/15 10:17:40;;;;;;;2.60;1.35;;;29.50;39.40;;;;;;5091819;27;20407;-89
2023/06/15 10:20:16;;;;;;;4.65;1.40;;;29.80;37.00;;;;;;5090659;27;20739;-88
2023/06/15 10:22:56;;;;;;;5.53;1.50;;;29.90;33.00;;;;;;5108432;27;20720;-89
2023/06/15 10:25:23;;;;;;;3.30;1.20;;;29.80;35.40;;;;;;5108012;28;20442;-87
2023/06/15 10:27:49;;;;;;;4.30;1.17;;;29.90;33.90;;;;;;5107155;27;20399;-89
2023/06/15 10:30:31;;;;;;;3.47;1.40;;;30.20;35.80;;;;;;5108453;28;20487;-88
2023/06/15 10:33:09;;;;;;;3.47;1.17;;;30.30;31.70;;;;;;5107097;28;20452;-88
2023/06/15 10:35:45;;;;;;;3.37;1.20;;;30.30;34.30;;;;;;5108607;28;20820;-88
2023/06/15 10:38:45;;;;;;;2.90;1.08;;;30.60;36.40;;;;;;5107895;28;20878;-88
2023/06/15 10:41:11;;;;;;;2.63;1.10;;;30.90;33.70;;;;;;5106992;28;20505;-90
2023/06/15 10:43:36;;;;;;;4.03;0.98;;;31.50;34.60;;;;;;5108730;28;20920;-88
2023/06/15 10:46:02;;;;;;;2.80;1.10;;;31.70;31.60;;;;;;5090614;28;20398;-88
2023/06/15 10:48:29;;;;;;;3.17;1.17;;;31.60;32.10;;;;;;5108235;28;20426;-89
2023/06/15 10:51:06;;;;;;;2.80;1.23;;;31.80;32.10;;;;;;5107749;28;20391;-88
2023/06/15 10:53:38;;;;;;;2.80;1.10;;;32.10;30.80;;;;;;5107367;28;20925;-89
2023/06/15 10:56:12;;;;;;;2.72;1.10;;;32.40;32.70;;;;;;5091221;28;20414;-89
2023/06/15 10:58:54;;;;;;;4.28;1.30;;;32.70;28.10;;;;;;5106891;28;20424;-88
2023/06/15 11:01:22;;;;;;;1.90;1.10;;;32.90;30.20;;;;;;5108009;28;20425;-88
2023/06/15 11:03:47;;;;;;;4.00;0.90;;;33.20;29.50;;;;;;5107403;28;20414;-88
2023/06/15 11:06:15;;;;;;;3.15;1.10;;;33.30;30.70;;;;;;5090951;28;20487;-89
2023/06/15 11:08:49;;;;;;;2.78;1.02;;;33.50;29.20;;;;;;5090846;28;20407;-89
2023/06/15 11:11:28;;;;;;;3.90;1.20;;;33.80;31.00;;;;;;5107045;28;20986;-89
2023/06/15 11:14:02;;;;;;;2.90;1.00;;;34.00;29.10;;;;;;5091501;28;20418;-89
2023/06/15 11:16:38;;;;;;;2.60;1.00;;;33.90;29.50;;;;;;5125608;28;20390;-89
2023/06/15 11:19:13;;;;;;;2.20;1.03;;;33.90;31.20;;;;;;5090537;28;20424;-89
2023/06/15 11:22:04;;;;;;;3.58;1.23;;;34.00;30.10;;;;;;5107656;28;20426;-89
2023/06/15 11:24:38;;;;;;;3.13;1.10;;;34.00;28.30;;;;;;5106861;28;20406;-90
2023/06/15 11:27:09;;;;;;;3.38;1.10;;;34.10;29.50;;;;;;5107888;28;20406;-90
2023/06/15 11:29:40;;;;;;;2.30;1.10;;;34.00;27.30;;;;;;5107076;27;20453;-89
2023/06/15 11:32:07;;;;;;;3.38;1.02;;;34.00;28.60;;;;;;5126132;28;20807;-90
2023/06/15 11:34:35;;;;;;;2.83;1.08;;;34.00;28.50;;;;;;5091048;28;20398;-88
2023/06/15 11:37:01;;;;;;;2.08;0.98;;;34.10;29.60;;;;;;5106869;28;20399;-90
2023/06/15 11:39:28;;;;;;;2.78;0.90;;;34.20;29.50;;;;;;5107936;27;20490;-88
2023/06/15 11:41:56;;;;;;;2.33;0.80;;;34.30;28.30;;;;;;5110156;27;20430;-88
2023/06/15 11:44:23;;;;;;;2.15;0.93;;;34.30;28.50;;;;;;5111855;27;20395;-89
2023/06/15 11:47:01;;;;;;;3.05;1.00;;;34.50;29.40;;;;;;5110843;27;20399;-88
2023/06/15 11:49:38;;;;;;;2.90;1.02;;;34.50;28.40;;;;;;5110656;27;20395;-90
2023/06/15 11:52:04;;;;;;;3.90;1.10;;;34.80;30.20;;;;;;5094612;27;20407;-89
2023/06/15 11:54:31;;;;;;;4.57;0.90;;;35.00;27.10;;;;;;5110315;27;20483;-89
2023/06/15 11:56:57;;;;;;;3.33;1.00;;;34.70;28.00;;;;;;5111285;27;20924;-89
2023/06/15 11:59:24;;;;;;;3.47;1.17;;;34.70;29.20;;;;;;5109901;27;20403;-89
2023/06/15 12:01:50;;;;;;;4.13;1.00;;;34.70;28.50;;;;;;5110917;27;20922;-89
2023/06/15 12:04:16;;;;;;;3.33;1.23;;;34.70;29.40;;;;;;5128762;27;20413;-89
2023/06/15 12:06:48;;;;;;;2.97;0.98;;;34.80;28.20;;;;;;5110411;27;20394;-88
2023/06/15 12:09:19;;;;;;;4.35;1.17;;;34.70;29.60;;;;;;5110697;27;20411;-89
2023/06/15 12:11:45;;;;;;;2.80;1.13;;;34.90;28.80;;;;;;5109909;27;20453;-89
2023/06/15 12:14:20;;;;;;;2.35;0.90;;;34.80;30.00;;;;;;5111108;27;20402;-89
2023/06/15 12:16:50;;;;;;;3.83;1.00;;;34.50;29.70;;;;;;5092837;27;20411;-89
2023/06/15 12:19:16;;;;;;;2.93;0.90;;;34.30;28.30;;;;;;5093704;27;20403;-89
2023/06/15 12:21:43;;;;;;;4.03;0.90;;;34.00;29.90;;;;;;5093293;27;20437;-88
2023/06/15 12:24:17;;;;;;;1.63;1.15;;;34.40;29.80;;;;;;5109985;27;20484;-88
2023/06/15 12:26:52;;;;;;;4.00;1.13;;;34.50;30.10;;;;;;5094116;27;21033;-88
2023/06/15 12:29:20;;;;;;;2.10;1.07;;;34.60;29.30;;;;;;5092039;27;20402;-88
2023/06/15 12:31:50;;;;;;;3.30;1.02;;;34.80;29.30;;;;;;5129158;27;20759;-88
2023/06/15 12:34:21;;;;;;;2.70;1.20;;;35.20;29.00;;;;;;5109354;27;20395;-88
2023/06/15 12:36:49;;;;;;;4.88;1.27;;;35.40;28.60;;;;;;5092907;27;20399;-90
2023/06/15 12:39:15;;;;;;;3.78;1.20;;;35.80;29.80;;;;;;5093467;27;20398;-87
2023/06/15 12:41:42;;;;;;;2.75;1.00;;;36.00;30.00;;;;;;5109407;27;20425;-90
2023/06/15 12:44:11;;;;;;;4.15;1.10;;;36.20;27.70;;;;;;5110222;27;21006;-89
2023/06/15 12:46:38;;;;;;;2.60;1.05;;;36.20;28.40;;;;;;5108974;27;20450;-88
2023/06/15 12:49:05;;;;;;;3.67;1.30;;;36.20;29.70;;;;;;5129549;27;20554;-90